»·PEaware :: SWA1088 KTUS-KSAN

SWA1088 :: KTUS-KSAN

FLIGHT INFORMATION

Flight Status: Arrived
Operator:
Southwest Airlines
More flights by this operator :: More flights under this callsign
Pilot: Jaden S. (17663)
Aircraft: BOEING 737-800
(B738)
More flights by this aircraft type
Origin: KTUS Tucson Intl
United States
Destination: KSAN San Diego Intl-Lindbergh
United States
More flights between these airports :: More routes between these airports
Route: +BURRO4 GBN J2 HOGGZ LUCKI1
File this flight plan on PilotEdge
Remarks:
Altitude:
(Current/Filed)
34,000ft
Speed:
(Current/Filed)
400kts
Departed: 05-Jan-18 01:24 PM
Arrived: 05-Jan-18 02:25 PM
Distance/Time
Traveled:
319nm/1:01
Distance/Time
To Go:
Arrived

Flight Plot

Page will automatically refresh every two minutes.

Flight plan parsing failed; only flown route is shown


Map Options




Map Legend


Flown Route
Filed Route
Departure Airport
Arrival Airport
Navaid (VOR, NDB)
Fix

Horizontal Profiles

Position Reports

Time Latitude Longitude Heading Altitude Ground
Speed
05-Jan-18 13:11 32.117245 -110.936711 38 2651ft 0kts
05-Jan-18 13:12 32.117245 -110.936711 38 2651ft 0kts
05-Jan-18 13:13 32.117245 -110.936711 38 2651ft 0kts
05-Jan-18 13:14 32.117245 -110.936711 38 2651ft 0kts
05-Jan-18 13:15 32.117245 -110.936711 38 2651ft 0kts
05-Jan-18 13:16 32.117245 -110.936711 38 2651ft 0kts
05-Jan-18 13:17 32.117245 -110.936711 38 2651ft 0kts
05-Jan-18 13:18 32.117245 -110.936711 38 2651ft 0kts
05-Jan-18 13:19 32.117245 -110.936711 38 2651ft 0kts
05-Jan-18 13:20 32.117245 -110.936711 38 2651ft 0kts
05-Jan-18 13:21 32.117245 -110.936711 38 2651ft 0kts
05-Jan-18 13:22 32.117215 -110.936740 38 2651ft 1kts
05-Jan-18 13:23 32.116709 -110.937213 38 2651ft 2kts
05-Jan-18 13:24 32.116642 -110.937276 37 2651ft 0kts
05-Jan-18 13:25 32.116643 -110.937274 37 2651ft 0kts
05-Jan-18 13:26 32.116857 -110.937523 247 2651ft 11kts
05-Jan-18 13:27 32.119358 -110.941675 314 2651ft 15kts
05-Jan-18 13:28 32.122603 -110.945506 315 2651ft 12kts
05-Jan-18 13:29 32.123538 -110.948000 160 2651ft 12kts
05-Jan-18 13:30 32.101333 -110.923421 141 4183ft 151kts
05-Jan-18 13:31 32.061737 -110.878099 144 6289ft 252kts
05-Jan-18 13:32 31.995124 -110.899725 239 9783ft 291kts
05-Jan-18 13:33 31.968729 -110.992335 285 12552ft 341kts
05-Jan-18 13:34 32.026746 -111.087396 300 15483ft 368kts
05-Jan-18 13:35 32.078895 -111.193658 304 18559ft 380kts
05-Jan-18 13:36 32.150239 -111.289489 309 21146ft 397kts
05-Jan-18 13:37 32.225376 -111.387749 308 23397ft 410kts
05-Jan-18 13:38 32.299376 -111.492147 301 25473ft 415kts
05-Jan-18 13:39 32.363677 -111.606748 300 27364ft 422kts
05-Jan-18 13:40 32.429000 -111.723521 300 29004ft 427kts
05-Jan-18 13:41 32.493893 -111.839341 301 31218ft 415kts
05-Jan-18 13:42 32.556667 -111.951319 301 33410ft 401kts
05-Jan-18 13:43 32.618225 -112.061673 302 34219ft 400kts
05-Jan-18 13:44 32.678867 -112.170786 302 34226ft 395kts
05-Jan-18 13:45 32.739218 -112.279732 301 34224ft 394kts
05-Jan-18 13:46 32.799582 -112.388733 301 34221ft 394kts
05-Jan-18 13:47 32.859490 -112.497464 301 34222ft 393kts
05-Jan-18 13:48 32.919197 -112.606471 301 34221ft 392kts
05-Jan-18 13:49 32.943440 -112.729542 268 34219ft 399kts
05-Jan-18 13:50 32.929731 -112.860606 266 34220ft 400kts
05-Jan-18 13:51 32.912665 -112.992209 265 34219ft 401kts
05-Jan-18 13:52 32.895067 -113.123220 265 34218ft 401kts
05-Jan-18 13:53 32.877270 -113.254219 265 34217ft 401kts
05-Jan-18 13:54 32.859286 -113.385657 265 34214ft 402kts
05-Jan-18 13:55 32.840896 -113.516727 264 34212ft 402kts
05-Jan-18 13:56 32.822289 -113.647702 264 34210ft 402kts
05-Jan-18 13:57 32.803710 -113.778948 264 34206ft 402kts
05-Jan-18 13:58 32.784830 -113.909962 264 34204ft 403kts
05-Jan-18 13:59 32.775073 -114.041910 272 34200ft 399kts
05-Jan-18 14:00 32.778917 -114.173156 275 34198ft 398kts
05-Jan-18 14:01 32.784292 -114.304403 274 34195ft 397kts
05-Jan-18 14:02 32.801494 -114.433052 287 34193ft 394kts
05-Jan-18 14:03 32.834793 -114.557251 287 34192ft 394kts
05-Jan-18 14:04 32.868307 -114.681390 284 34192ft 394kts
05-Jan-18 14:05 32.876293 -114.811834 271 34191ft 397kts
05-Jan-18 14:06 32.874132 -114.942933 270 34191ft 397kts
05-Jan-18 14:07 32.872507 -115.033346 270 34191ft 397kts
05-Jan-18 14:08 32.869426 -115.164593 270 34128ft 397kts
05-Jan-18 14:09 32.866051 -115.295245 269 30992ft 398kts
05-Jan-18 14:10 32.852704 -115.429193 260 27413ft 426kts
05-Jan-18 14:11 32.831704 -115.566796 258 24612ft 419kts
05-Jan-18 14:12 32.809460 -115.701604 258 22018ft 408kts
05-Jan-18 14:13 32.787845 -115.831982 258 19586ft 396kts
05-Jan-18 14:14 32.776415 -115.959394 264 17571ft 376kts
05-Jan-18 14:15 32.768352 -116.073886 263 15906ft 324kts
05-Jan-18 14:16 32.760344 -116.178848 263 14493ft 320kts
05-Jan-18 14:17 32.752247 -116.283265 264 13062ft 314kts
05-Jan-18 14:18 32.744495 -116.383812 263 11720ft 286kts
05-Jan-18 14:19 32.734590 -116.474675 261 10779ft 273kts
05-Jan-18 14:20 32.724627 -116.564239 261 9745ft 274kts
05-Jan-18 14:21 32.714450 -116.653627 261 8398ft 273kts
05-Jan-18 14:22 32.704579 -116.739038 261 7119ft 247kts
05-Jan-18 14:23 32.695754 -116.814965 261 5850ft 227kts
05-Jan-18 14:24 32.686274 -116.887308 254 4612ft 214kts
05-Jan-18 14:25 32.676258 -116.951851 281 3925ft 197kts
05-Jan-18 14:26 32.690780 -117.013301 286 2950ft 195kts
05-Jan-18 14:27 32.703881 -117.067294 286 2032ft 145kts
05-Jan-18 14:28 32.714246 -117.110020 286 1330ft 129kts
05-Jan-18 14:29 32.724128 -117.151099 285 645ft 130kts
05-Jan-18 14:30 32.734191 -117.192423 284 23ft 87kts
05-Jan-18 14:31 32.735130 -117.198313 245 23ft 0kts
05-Jan-18 14:32 32.735129 -117.198314 245 23ft 0kts
05-Jan-18 14:33 32.735129 -117.198316 245 23ft 0kts

Navigation Log

Ident Type
Flight plan parsing failed, navigation log unavailable